Time;durP1;ratioP1;P1;durP2;ratioP2;P2;SDS_P1;SDS_P2;PMS_P1;PMS_P2;Temp;Humidity;BMP_temperature;BMP_pressure;BME280_temperature;BME280_humidity;BME280_pressure;Samples;Min_cycle;Max_cycle;Signal;HPM_P1;HPM_P2
2022/01/25 00:28:38;;;;;;;130.10;57.17;;;-1.20;99.90;;;;;;5094151;28;20526;-63
2022/01/25 00:31:14;;;;;;;135.43;60.20;;;-1.20;99.90;;;;;;5093778;28;20028;-64
2022/01/25 00:33:44;;;;;;;134.50;57.10;;;-1.20;99.90;;;;;;5093940;28;20039;-64
2022/01/25 00:36:14;;;;;;;144.27;59.90;;;-1.10;99.90;;;;;;5093988;28;20028;-64
2022/01/25 00:38:41;;;;;;;137.23;58.53;;;-1.10;99.90;;;;;;5094037;28;20032;-64
2022/01/25 00:41:07;;;;;;;130.53;57.20;;;-1.10;99.90;;;;;;5074588;28;20111;-66
2022/01/25 00:43:34;;;;;;;126.77;56.37;;;-1.10;99.90;;;;;;5092303;28;20068;-63
2022/01/25 00:46:05;;;;;;;132.90;60.10;;;-1.10;99.90;;;;;;5093590;28;20106;-63
2022/01/25 00:56:48;;;;;;;130.47;56.47;;;-0.90;99.90;;;;;;5068339;28;20035;-66
2022/01/25 00:59:21;;;;;;;127.63;53.57;;;-0.90;99.90;;;;;;5074259;28;20028;-68
2022/01/25 01:01:51;;;;;;;123.20;53.10;;;-0.90;99.90;;;;;;5091364;28;20051;-67
2022/01/25 01:04:18;;;;;;;138.30;58.93;;;-1.00;99.90;;;;;;5075154;28;20526;-66
2022/01/25 01:06:47;;;;;;;137.90;57.83;;;-1.00;99.90;;;;;;5056597;28;20078;-66
2022/01/25 01:09:14;;;;;;;130.50;52.93;;;-1.10;99.90;;;;;;5054519;28;20521;-69
2022/01/25 01:12:08;;;;;;;117.77;51.50;;;-1.00;99.90;;;;;;5072961;28;20052;-65
2022/01/25 01:31:14;;;;;;;116.57;50.87;;;-1.40;99.90;;;;;;5071351;28;20050;-63
2022/01/25 01:44:00;;;;;;;118.37;54.43;;;-1.00;99.90;;;;;;5055872;28;20120;-64
2022/01/25 01:46:39;;;;;;;125.63;56.03;;;-1.10;99.90;;;;;;5070490;28;20459;-64
2022/01/25 01:49:07;;;;;;;123.70;56.60;;;-1.10;99.90;;;;;;5072095;28;20071;-64
2022/01/25 01:51:38;;;;;;;122.53;55.53;;;-1.10;99.90;;;;;;5066245;28;20036;-63
2022/01/25 01:54:10;;;;;;;131.60;55.97;;;-1.10;99.90;;;;;;5069590;28;20044;-64
2022/01/25 01:56:37;;;;;;;134.27;57.10;;;-1.20;99.90;;;;;;5052607;28;20040;-63
2022/01/25 01:59:08;;;;;;;117.97;53.70;;;-1.30;99.90;;;;;;5071266;28;20118;-63
2022/01/25 02:01:37;;;;;;;131.27;56.10;;;-1.30;99.90;;;;;;5064266;28;20047;-62
2022/01/25 02:04:06;;;;;;;128.97;57.13;;;-1.30;99.90;;;;;;5070650;28;20074;-65
2022/01/25 02:06:32;;;;;;;123.13;54.17;;;-1.40;99.90;;;;;;5054268;28;20056;-62
2022/01/25 02:08:59;;;;;;;119.83;54.07;;;-1.40;99.90;;;;;;5069038;28;20418;-65
2022/01/25 02:11:26;;;;;;;124.70;56.57;;;-1.40;99.90;;;;;;5049050;28;20041;-64
2022/01/25 02:13:52;;;;;;;122.03;53.00;;;-1.30;99.90;;;;;;5071761;28;20032;-65
2022/01/25 02:16:39;;;;;;;121.63;53.13;;;-1.30;99.90;;;;;;5070446;28;20403;-64
2022/01/25 02:24:39;;;;;;;119.77;52.17;;;-1.30;99.90;;;;;;5062856;28;20046;-65
2022/01/25 02:27:06;;;;;;;113.37;50.30;;;-1.30;99.90;;;;;;5052952;28;20464;-64
2022/01/25 02:29:33;;;;;;;124.63;50.93;;;-1.30;99.90;;;;;;5071078;28;20039;-64
2022/01/25 02:31:59;;;;;;;121.17;51.10;;;-1.20;99.90;;;;;;5071644;28;20094;-65
2022/01/25 02:34:26;;;;;;;109.40;48.77;;;-1.30;99.90;;;;;;5053692;28;20540;-65
2022/01/25 02:37:11;;;;;;;135.07;54.87;;;-1.30;99.90;;;;;;5053351;28;20406;-63
2022/01/25 02:39:39;;;;;;;117.63;52.07;;;-1.30;99.90;;;;;;5071710;28;20045;-67
2022/01/25 02:42:06;;;;;;;119.00;52.90;;;-1.30;99.90;;;;;;5071717;28;20402;-63
2022/01/25 02:44:34;;;;;;;121.53;52.37;;;-1.30;99.90;;;;;;5048349;28;20478;-64
2022/01/25 02:49:35;;;;;;;111.60;51.20;;;-1.40;99.90;;;;;;5072007;28;20541;-64
2022/01/25 02:52:04;;;;;;;126.20;52.67;;;-1.40;99.90;;;;;;5076863;28;20044;-64
2022/01/25 02:54:31;;;;;;;115.87;50.77;;;-1.50;99.90;;;;;;5073643;28;20041;-64
2022/01/25 02:56:57;;;;;;;116.67;50.80;;;-1.60;99.90;;;;;;5070963;28;20128;-63
2022/01/25 02:59:23;;;;;;;125.63;52.97;;;-1.40;99.90;;;;;;5070389;28;20755;-65
2022/01/25 03:01:50;;;;;;;124.17;52.27;;;-1.40;99.90;;;;;;5052488;28;20036;-65
2022/01/25 03:04:19;;;;;;;123.87;51.50;;;-1.40;99.90;;;;;;5090660;28;20043;-66
2022/01/25 03:06:45;;;;;;;111.17;49.80;;;-1.20;99.90;;;;;;5073743;28;21203;-64
2022/01/25 03:09:13;;;;;;;129.93;51.73;;;-1.30;99.90;;;;;;5093566;28;20032;-64
2022/01/25 03:11:39;;;;;;;123.00;50.43;;;-1.20;99.90;;;;;;5075336;28;20120;-64
2022/01/25 03:14:09;;;;;;;121.23;51.27;;;-1.20;99.90;;;;;;5092031;28;20032;-64
2022/01/25 03:21:58;;;;;;;114.30;49.37;;;-1.10;99.90;;;;;;5090335;28;20071;-64
2022/01/25 03:24:25;;;;;;;112.20;49.53;;;-1.00;99.90;;;;;;5076991;28;20074;-63
2022/01/25 03:26:51;;;;;;;113.77;48.97;;;-1.10;99.90;;;;;;5091439;28;20047;-64
2022/01/25 03:29:18;;;;;;;108.43;46.40;;;-1.10;99.90;;;;;;5077416;28;20032;-64
2022/01/25 03:31:44;;;;;;;117.33;48.37;;;-1.20;99.90;;;;;;5075285;28;20051;-64
2022/01/25 03:34:10;;;;;;;116.63;48.47;;;-1.10;99.90;;;;;;5092391;28;20165;-64
2022/01/25 03:36:36;;;;;;;116.13;49.03;;;-0.90;99.90;;;;;;5093460;28;20386;-64
2022/01/25 03:39:05;;;;;;;125.37;53.63;;;-1.00;99.90;;;;;;5079024;28;20071;-63
2022/01/25 03:41:31;;;;;;;115.17;53.27;;;-0.90;99.90;;;;;;5076769;28;20089;-64
2022/01/25 03:43:57;;;;;;;119.97;51.23;;;-1.10;99.90;;;;;;5093897;28;20121;-64
2022/01/25 03:46:36;;;;;;;114.87;50.43;;;-1.10;99.90;;;;;;5095028;28;20431;-63
2022/01/25 03:51:49;;;;;;;133.23;51.50;;;-1.60;99.90;;;;;;5091471;28;20077;-63
2022/01/25 03:54:15;;;;;;;102.50;46.70;;;-1.50;99.90;;;;;;5095986;28;20036;-63
2022/01/25 03:56:41;;;;;;;105.07;43.87;;;-1.20;99.90;;;;;;5093208;28;20032;-63
2022/01/25 03:59:08;;;;;;;94.57;43.53;;;-1.10;99.90;;;;;;5091019;28;20509;-63
2022/01/25 04:01:35;;;;;;;92.37;41.90;;;-0.90;99.90;;;;;;5076670;28;20044;-62
2022/01/25 04:04:08;;;;;;;85.83;37.03;;;-1.00;99.90;;;;;;5075743;28;20068;-64
2022/01/25 04:06:36;;;;;;;88.47;36.70;;;-0.80;99.90;;;;;;5094679;28;20051;-63
2022/01/25 04:09:05;;;;;;;82.33;36.37;;;-0.70;99.90;;;;;;5090907;28;20596;-63
2022/01/25 04:11:31;;;;;;;85.93;36.87;;;-0.60;99.90;;;;;;5090577;28;20473;-63
2022/01/25 04:13:58;;;;;;;80.17;35.60;;;-0.90;99.90;;;;;;5075212;28;20531;-62
2022/01/25 04:16:31;;;;;;;76.33;36.37;;;-1.30;99.90;;;;;;5089990;28;20169;-63
2022/01/25 04:19:24;;;;;;;86.00;39.97;;;-1.00;99.90;;;;;;5090278;28;20046;-64
2022/01/25 04:27:07;;;;;;;78.53;38.10;;;-0.60;99.90;;;;;;5089739;28;20491;-62
2022/01/25 04:29:34;;;;;;;85.07;38.23;;;-0.90;99.90;;;;;;5093832;28;20047;-63
2022/01/25 04:32:00;;;;;;;82.23;37.20;;;-1.00;99.90;;;;;;5091532;28;20066;-63
2022/01/25 04:50:54;;;;;;;96.88;42.35;;;0.00;99.90;;;;;;5077244;28;20030;-63
2022/01/25 04:53:23;;;;;;;82.30;38.58;;;0.00;99.90;;;;;;5088528;28;20115;-65
2022/01/25 04:56:04;;;;;;;95.35;41.10;;;0.20;99.90;;;;;;5094093;28;20067;-64
2022/01/25 04:58:39;;;;;;;93.17;40.03;;;-0.40;99.90;;;;;;5087594;28;20131;-65
2022/01/25 05:01:05;;;;;;;106.78;41.83;;;-0.80;99.90;;;;;;5087879;28;20497;-64
2022/01/25 05:03:54;;;;;;;87.67;41.27;;;-0.80;99.90;;;;;;5074235;28;20040;-64
2022/01/25 05:06:21;;;;;;;91.33;41.80;;;-0.70;99.90;;;;;;5048123;28;20036;-64
2022/01/25 05:08:51;;;;;;;81.80;40.20;;;-0.80;99.90;;;;;;5053827;28;20044;-65
2022/01/25 05:16:31;;;;;;;89.23;40.70;;;-0.40;99.90;;;;;;5067360;28;20089;-64
2022/01/25 05:24:16;;;;;;;92.33;41.67;;;-0.60;99.90;;;;;;5069654;28;20544;-65
2022/01/25 05:26:43;;;;;;;85.53;41.75;;;-0.50;99.90;;;;;;5067829;28;20422;-63
2022/01/25 05:29:09;;;;;;;94.15;41.83;;;-0.50;99.90;;;;;;5042729;28;20033;-64
2022/01/25 05:31:36;;;;;;;98.88;46.33;;;-0.30;99.90;;;;;;5063227;28;20797;-65
2022/01/25 05:34:03;;;;;;;90.30;42.70;;;-0.40;99.90;;;;;;5071062;28;20047;-62
2022/01/25 05:36:29;;;;;;;87.43;42.13;;;-0.10;99.90;;;;;;5085340;28;20216;-63
2022/01/25 05:38:58;;;;;;;85.50;39.75;;;-0.30;99.90;;;;;;5048631;28;20135;-65
2022/01/25 05:41:28;;;;;;;98.93;44.55;;;-0.30;99.90;;;;;;5045096;28;20103;-64
2022/01/25 05:46:42;;;;;;;91.70;42.17;;;0.00;99.90;;;;;;5063892;28;20562;-64
2022/01/25 05:49:08;;;;;;;78.97;39.90;;;0.10;99.90;;;;;;5068058;28;20040;-64
2022/01/25 05:51:35;;;;;;;81.47;39.10;;;-0.40;99.90;;;;;;5035531;28;20478;-63
2022/01/25 05:54:01;;;;;;;82.53;40.80;;;0.00;99.90;;;;;;5068080;28;20124;-64
2022/01/25 05:56:27;;;;;;;79.50;39.63;;;-0.30;99.90;;;;;;5069431;28;20124;-62
2022/01/25 05:58:53;;;;;;;81.93;38.60;;;-0.20;99.90;;;;;;5050712;28;20223;-65
2022/01/25 06:26:51;;;;;;;77.72;44.03;;;0.30;99.90;;;;;;5098447;27;20451;-73
2022/01/25 06:29:19;;;;;;;87.97;45.20;;;1.20;99.90;;;;;;5098434;27;20031;-68
2022/01/25 06:31:47;;;;;;;83.53;42.03;;;0.90;99.90;;;;;;5096773;28;20052;-67
2022/01/25 06:34:14;;;;;;;89.00;43.22;;;0.50;99.90;;;;;;5096564;27;20463;-70
2022/01/25 06:36:41;;;;;;;88.18;42.45;;;0.30;99.90;;;;;;5093884;28;20065;-70
2022/01/25 06:39:08;;;;;;;76.30;37.28;;;0.20;99.90;;;;;;5098452;28;20030;-70
2022/01/25 06:41:36;;;;;;;75.63;37.28;;;0.40;99.90;;;;;;5093022;28;20031;-69
2022/01/25 06:44:03;;;;;;;96.20;38.88;;;0.50;99.90;;;;;;5094820;28;20031;-69
2022/01/25 06:46:29;;;;;;;87.80;37.47;;;0.30;99.90;;;;;;5089015;27;20034;-71
2022/01/25 06:48:55;;;;;;;88.95;38.05;;;0.50;99.90;;;;;;5092370;28;20029;-69
2022/01/25 06:51:21;;;;;;;73.20;37.95;;;0.70;99.90;;;;;;5090795;28;20031;-71
2022/01/25 06:53:47;;;;;;;77.80;36.85;;;0.70;99.90;;;;;;5094794;28;20032;-70
2022/01/25 06:56:13;;;;;;;88.25;43.97;;;1.00;99.90;;;;;;5097352;28;20029;-68
2022/01/25 06:58:41;;;;;;;86.47;44.78;;;0.90;99.90;;;;;;5094063;28;20502;-70
2022/01/25 07:01:08;;;;;;;94.43;45.90;;;0.60;99.90;;;;;;5096648;28;20024;-70
2022/01/25 07:03:34;;;;;;;101.15;45.90;;;0.40;99.90;;;;;;5096999;28;20108;-70
2022/01/25 07:06:00;;;;;;;87.05;46.30;;;0.70;99.90;;;;;;5096816;27;20427;-70
2022/01/25 07:08:27;;;;;;;93.07;45.10;;;0.80;99.90;;;;;;5094872;28;20036;-70
2022/01/25 07:10:54;;;;;;;88.57;45.05;;;1.00;99.90;;;;;;5097779;28;20474;-70
2022/01/25 07:13:22;;;;;;;88.07;44.00;;;1.00;99.90;;;;;;5088182;28;20127;-70
2022/01/25 07:15:48;;;;;;;85.25;44.60;;;1.10;99.90;;;;;;5114850;27;20036;-70
2022/01/25 07:18:15;;;;;;;88.35;44.17;;;1.00;99.90;;;;;;5095822;27;20397;-71
2022/01/25 07:20:41;;;;;;;84.80;45.70;;;1.20;99.90;;;;;;5076291;28;20029;-73
2022/01/25 07:23:07;;;;;;;90.53;45.60;;;1.30;99.90;;;;;;5095404;27;20508;-70
2022/01/25 07:25:33;;;;;;;90.45;45.80;;;1.20;99.90;;;;;;5113094;27;20042;-70
2022/01/25 07:28:00;;;;;;;90.13;43.42;;;1.20;99.90;;;;;;5066443;27;20124;-71
2022/01/25 07:30:26;;;;;;;90.95;41.67;;;1.40;99.90;;;;;;5059276;28;20448;-71
2022/01/25 07:32:52;;;;;;;86.05;43.22;;;1.00;99.90;;;;;;5059334;28;20040;-71
2022/01/25 07:35:18;;;;;;;84.47;44.05;;;1.00;99.90;;;;;;5066187;28;20047;-70
2022/01/25 07:37:44;;;;;;;90.05;44.97;;;1.10;99.90;;;;;;5066846;28;20467;-69
2022/01/25 07:40:12;;;;;;;82.00;43.17;;;1.30;99.90;;;;;;5061357;28;20100;-70
2022/01/25 07:42:40;;;;;;;82.70;43.38;;;1.00;99.90;;;;;;5065192;28;20527;-70
2022/01/25 07:45:10;;;;;;;81.97;43.97;;;1.20;99.90;;;;;;5067214;28;20149;-70
2022/01/25 07:47:36;;;;;;;83.60;41.80;;;1.30;99.90;;;;;;5064111;28;20075;-71
2022/01/25 07:50:07;;;;;;;82.70;44.40;;;1.20;99.90;;;;;;5055978;28;20040;-71
2022/01/25 07:52:33;;;;;;;99.32;51.70;;;1.30;99.90;;;;;;5062838;28;20111;-71
2022/01/25 07:54:59;;;;;;;98.70;55.28;;;1.50;99.90;;;;;;5066959;28;20111;-69
2022/01/25 07:57:26;;;;;;;102.65;54.28;;;1.90;99.90;;;;;;5062466;28;20025;-69
2022/01/25 07:59:53;;;;;;;104.93;52.55;;;1.80;99.90;;;;;;5064470;28;20021;-70
2022/01/25 08:02:20;;;;;;;105.28;54.55;;;1.60;99.90;;;;;;5067817;28;20025;-71
2022/01/25 08:04:47;;;;;;;97.35;50.58;;;1.70;99.90;;;;;;5066664;28;20387;-71
2022/01/25 08:07:14;;;;;;;98.72;50.90;;;1.70;99.90;;;;;;5062334;27;20039;-71
2022/01/25 08:09:40;;;;;;;90.97;49.95;;;1.80;99.90;;;;;;5065296;28;20062;-71
2022/01/25 08:12:07;;;;;;;98.35;52.90;;;1.90;99.90;;;;;;5064857;28;20049;-70
2022/01/25 08:14:33;;;;;;;98.05;51.40;;;1.60;99.90;;;;;;5067847;28;20056;-70
2022/01/25 08:16:59;;;;;;;119.50;59.60;;;1.80;99.90;;;;;;5066052;28;20028;-70
2022/01/25 08:19:25;;;;;;;120.32;63.60;;;1.60;99.90;;;;;;5060413;28;20033;-70
2022/01/25 08:21:51;;;;;;;116.30;60.58;;;1.60;99.90;;;;;;5067462;28;20445;-70
2022/01/25 08:24:18;;;;;;;112.70;59.50;;;1.60;99.90;;;;;;5063854;27;20032;-69
2022/01/25 08:26:46;;;;;;;122.78;64.50;;;1.90;99.90;;;;;;5066111;27;20074;-70
2022/01/25 08:41:57;;;;;;;126.00;67.78;;;1.80;99.90;;;;;;5068508;27;1820314;-70
2022/01/25 08:44:24;;;;;;;128.23;64.63;;;1.80;99.90;;;;;;5093372;28;20382;-70
2022/01/25 08:46:51;;;;;;;116.95;62.00;;;1.80;99.90;;;;;;5118666;28;20062;-70
2022/01/25 08:49:17;;;;;;;113.38;61.47;;;1.90;99.90;;;;;;5091341;28;20065;-72
2022/01/25 08:51:43;;;;;;;132.25;68.53;;;2.00;99.90;;;;;;5110767;28;20043;-71
2022/01/25 08:54:09;;;;;;;128.55;67.22;;;1.90;99.90;;;;;;5108744;28;20439;-70
2022/01/25 08:56:36;;;;;;;122.95;64.43;;;1.80;99.90;;;;;;5110990;28;20095;-71
2022/01/25 08:59:02;;;;;;;125.60;65.15;;;1.80;99.90;;;;;;5106734;28;20020;-71
2022/01/25 09:01:28;;;;;;;122.00;63.70;;;2.10;99.90;;;;;;5092441;28;20578;-71
2022/01/25 09:03:54;;;;;;;128.63;69.55;;;2.20;99.90;;;;;;5092157;28;20387;-70
2022/01/25 09:06:21;;;;;;;122.57;67.13;;;2.40;99.90;;;;;;5107639;28;20028;-70
2022/01/25 09:08:49;;;;;;;120.32;65.93;;;2.30;99.90;;;;;;5108976;28;20031;-71
2022/01/25 09:11:15;;;;;;;121.40;65.18;;;2.40;99.90;;;;;;5090334;28;20027;-72
2022/01/25 09:13:41;;;;;;;125.82;63.65;;;2.50;99.90;;;;;;5107380;28;20035;-71
2022/01/25 09:16:08;;;;;;;126.32;65.53;;;2.30;99.90;;;;;;5110028;28;20493;-71
2022/01/25 09:18:36;;;;;;;124.22;64.43;;;2.30;99.90;;;;;;5090458;28;20394;-71
2022/01/25 09:21:04;;;;;;;125.20;63.70;;;2.10;99.90;;;;;;5103832;28;20073;-71
2022/01/25 09:23:31;;;;;;;111.88;59.20;;;2.30;99.90;;;;;;5107145;28;20446;-71
2022/01/25 09:25:57;;;;;;;121.25;63.10;;;2.30;99.90;;;;;;5109821;28;20024;-71
2022/01/25 09:28:24;;;;;;;111.35;60.20;;;2.40;99.90;;;;;;5089560;28;20057;-71
2022/01/25 09:30:50;;;;;;;121.97;61.17;;;2.30;99.90;;;;;;5108209;28;20100;-71
2022/01/25 09:45:01;;;;;;;123.97;65.05;;;2.20;99.90;;;;;;5087745;28;20389;-71
2022/01/25 09:47:27;;;;;;;119.05;63.83;;;2.80;99.90;;;;;;5090985;28;20044;-71
2022/01/25 09:49:53;;;;;;;116.63;62.30;;;3.00;99.90;;;;;;5087126;28;20071;-72
2022/01/25 09:52:20;;;;;;;117.78;60.05;;;2.70;99.90;;;;;;5087570;28;20016;-72
2022/01/25 09:54:54;;;;;;;121.68;61.80;;;2.70;99.90;;;;;;5084426;28;20024;-72
2022/01/25 09:57:21;;;;;;;117.90;62.95;;;2.60;99.90;;;;;;5086350;28;20074;-72
2022/01/25 09:59:48;;;;;;;120.70;62.85;;;2.50;99.90;;;;;;5088142;28;20417;-71
2022/01/25 10:02:49;;;;;;;124.82;58.95;;;2.30;99.90;;;;;;5085106;28;20024;-70
2022/01/25 10:05:37;;;;;;;110.95;58.88;;;2.40;99.90;;;;;;5082233;28;20020;-72
2022/01/25 10:08:14;;;;;;;113.95;57.55;;;2.40;99.90;;;;;;5086503;28;20471;-74
2022/01/25 10:10:46;;;;;;;115.63;60.97;;;2.40;99.90;;;;;;5082102;28;20056;-71
2022/01/25 10:13:18;;;;;;;118.63;59.28;;;2.20;99.90;;;;;;5086763;28;20024;-72
2022/01/25 10:15:45;;;;;;;114.70;57.72;;;2.10;99.90;;;;;;5093413;28;20032;-72
2022/01/25 10:18:12;;;;;;;116.10;61.22;;;2.20;99.90;;;;;;5084927;28;20046;-71
2022/01/25 10:20:47;;;;;;;118.40;58.47;;;1.80;99.90;;;;;;5082705;28;20020;-73
2022/01/25 10:23:25;;;;;;;118.93;60.00;;;1.80;99.90;;;;;;5081193;28;20047;-74
2022/01/25 10:25:51;;;;;;;107.78;55.28;;;1.70;99.90;;;;;;5083956;28;20036;-74
2022/01/25 10:28:29;;;;;;;108.93;55.63;;;1.40;99.90;;;;;;5087764;28;20028;-73
2022/01/25 10:31:00;;;;;;;119.22;55.47;;;1.30;99.90;;;;;;5085569;28;20028;-72
2022/01/25 10:33:37;;;;;;;106.70;56.83;;;1.10;99.90;;;;;;5084455;28;20117;-71
2022/01/25 10:36:19;;;;;;;102.53;52.38;;;1.00;99.90;;;;;;5085006;28;20035;-71
2022/01/25 10:38:48;;;;;;;109.20;54.05;;;0.90;99.90;;;;;;5067800;28;20074;-73
2022/01/25 10:41:22;;;;;;;106.00;52.50;;;0.90;99.90;;;;;;5063810;28;20143;-72
2022/01/25 10:43:51;;;;;;;104.88;52.50;;;0.80;99.90;;;;;;5070368;28;20049;-70
2022/01/25 10:46:24;;;;;;;103.18;53.22;;;0.60;99.90;;;;;;5059385;28;20383;-70
2022/01/25 10:48:53;;;;;;;103.20;52.03;;;0.40;99.90;;;;;;5049584;28;20028;-70
2022/01/25 10:51:23;;;;;;;103.00;51.22;;;0.40;99.90;;;;;;5059234;28;20036;-71
2022/01/25 10:54:14;;;;;;;116.78;56.35;;;0.40;99.90;;;;;;5052553;28;20045;-71
2022/01/25 10:56:49;;;;;;;115.30;54.10;;;0.30;99.90;;;;;;5046070;28;20544;-71
2022/01/25 10:59:24;;;;;;;106.85;52.63;;;0.30;99.90;;;;;;5051559;28;20025;-71
2022/01/25 11:01:54;;;;;;;104.95;54.05;;;0.30;99.90;;;;;;5053499;28;20025;-73
2022/01/25 11:04:26;;;;;;;102.40;52.22;;;0.20;99.90;;;;;;5055748;28;20060;-73
2022/01/25 11:07:11;;;;;;;100.07;51.28;;;0.20;99.90;;;;;;5052332;28;20064;-73
2022/01/25 11:09:43;;;;;;;104.88;54.75;;;0.30;99.90;;;;;;5051542;28;20033;-72
2022/01/25 11:12:16;;;;;;;107.93;53.88;;;0.20;99.90;;;;;;5050562;28;20021;-72
2022/01/25 11:14:57;;;;;;;109.43;52.75;;;0.10;99.90;;;;;;5052639;28;20033;-71
2022/01/25 11:17:31;;;;;;;114.43;53.97;;;0.10;99.90;;;;;;5054676;28;20021;-74
2022/01/25 11:19:59;;;;;;;107.32;53.80;;;0.00;99.90;;;;;;5050352;28;20421;-74
2022/01/25 11:22:26;;;;;;;113.75;54.80;;;-0.10;99.90;;;;;;5054362;28;20020;-75
2022/01/25 11:25:06;;;;;;;112.22;58.17;;;-0.10;99.90;;;;;;5053511;28;20110;-74
2022/01/25 11:27:33;;;;;;;110.05;54.88;;;-0.10;99.90;;;;;;5052879;28;20024;-76
2022/01/25 11:30:10;;;;;;;108.53;53.30;;;-0.10;99.90;;;;;;5054807;28;20316;-76
2022/01/25 11:32:43;;;;;;;118.55;58.65;;;-0.10;99.90;;;;;;5052234;28;20384;-74
2022/01/25 11:35:25;;;;;;;114.95;57.15;;;0.00;99.90;;;;;;5053216;28;20032;-72
2022/01/25 11:37:51;;;;;;;118.60;57.08;;;-0.10;99.90;;;;;;5052638;28;21312;-73
2022/01/25 11:40:38;;;;;;;112.18;57.03;;;-0.20;99.90;;;;;;5049666;28;20021;-72
2022/01/25 11:43:10;;;;;;;128.43;61.28;;;-0.20;99.90;;;;;;5050261;28;20052;-73
2022/01/25 11:45:42;;;;;;;124.75;62.22;;;-0.30;99.90;;;;;;5052627;28;20020;-73
2022/01/25 11:48:08;;;;;;;131.45;62.47;;;-0.40;99.90;;;;;;5055219;28;20060;-72
2022/01/25 11:50:41;;;;;;;118.55;60.72;;;-0.50;99.90;;;;;;5052697;28;20029;-75
2022/01/25 11:53:11;;;;;;;106.38;55.75;;;-0.50;99.90;;;;;;5049286;28;20120;-72
2022/01/25 11:55:48;;;;;;;119.88;57.45;;;-0.60;99.90;;;;;;5056923;28;20025;-72
2022/01/25 11:58:21;;;;;;;112.05;54.70;;;-0.60;99.90;;;;;;5051591;28;20017;-72
2022/01/25 12:00:53;;;;;;;116.40;58.80;;;-0.60;99.90;;;;;;5041827;28;20017;-76
2022/01/25 12:03:56;;;;;;;114.95;56.65;;;-0.70;99.90;;;;;;5053651;28;20549;-74
2022/01/25 12:06:31;;;;;;;117.82;57.00;;;-0.70;99.90;;;;;;5060704;28;20025;-73
2022/01/25 12:09:43;;;;;;;119.72;57.08;;;-0.80;99.90;;;;;;5055220;28;20025;-72
2022/01/25 12:12:11;;;;;;;121.05;58.85;;;-0.80;99.90;;;;;;5050461;28;20026;-73
2022/01/25 12:14:41;;;;;;;126.90;59.13;;;-0.90;99.90;;;;;;5045903;28;20036;-72
2022/01/25 12:17:15;;;;;;;112.47;57.72;;;-0.90;99.90;;;;;;5051663;28;20534;-70
2022/01/25 12:19:50;;;;;;;113.25;55.55;;;-0.90;99.90;;;;;;5027244;28;20030;-71
2022/01/25 12:22:41;;;;;;;120.82;58.50;;;-1.00;99.90;;;;;;5045090;28;20042;-71
2022/01/25 12:25:24;;;;;;;124.67;59.10;;;-1.00;99.90;;;;;;5056257;28;20017;-73
2022/01/25 12:27:59;;;;;;;128.20;58.33;;;-1.00;99.90;;;;;;5049471;28;20519;-72
2022/01/25 12:30:45;;;;;;;119.30;57.08;;;-1.00;99.90;;;;;;5043439;28;20029;-73
2022/01/25 12:33:22;;;;;;;113.40;55.00;;;-1.10;99.90;;;;;;5036230;28;20026;-72
2022/01/25 12:35:49;;;;;;;116.40;53.85;;;-1.10;99.90;;;;;;5048658;28;20025;-73
2022/01/25 12:38:38;;;;;;;116.45;56.90;;;-1.10;99.90;;;;;;5039334;28;20028;-72
2022/01/25 12:41:08;;;;;;;118.90;55.33;;;-1.10;99.90;;;;;;5043105;28;20021;-73
2022/01/25 12:43:44;;;;;;;126.75;60.35;;;-1.10;99.90;;;;;;5034331;28;20435;-73
2022/01/25 12:46:35;;;;;;;125.53;59.40;;;-1.10;99.90;;;;;;5052007;28;20311;-73
2022/01/25 12:49:06;;;;;;;129.67;60.27;;;-1.00;99.90;;;;;;5034277;28;20036;-71
2022/01/25 12:51:38;;;;;;;124.50;58.72;;;-0.90;99.90;;;;;;5052054;28;20036;-73
2022/01/25 12:54:11;;;;;;;132.60;63.40;;;-0.80;99.90;;;;;;5044087;28;20060;-72
2022/01/25 12:56:44;;;;;;;138.88;61.85;;;-0.80;99.90;;;;;;5044304;28;20450;-73
2022/01/25 12:59:22;;;;;;;114.85;56.83;;;-0.60;99.90;;;;;;5051745;28;20029;-72
2022/01/25 13:01:50;;;;;;;124.15;60.28;;;-0.50;99.90;;;;;;5050782;28;20411;-72
2022/01/25 13:04:17;;;;;;;128.05;59.47;;;-0.60;99.90;;;;;;5052033;28;20017;-72
2022/01/25 13:06:51;;;;;;;119.50;58.47;;;-0.60;99.90;;;;;;5051723;28;20035;-71
2022/01/25 13:09:38;;;;;;;112.30;54.97;;;-0.60;99.90;;;;;;5053626;28;20057;-73
2022/01/25 13:17:12;;;;;;;116.85;59.53;;;-0.50;99.90;;;;;;5050031;28;20272;-72
2022/01/25 13:19:48;;;;;;;118.18;58.17;;;-0.50;99.90;;;;;;5045882;28;20025;-71
2022/01/25 13:22:23;;;;;;;115.72;56.33;;;-0.50;99.90;;;;;;5025846;28;20072;-71
2022/01/25 13:27:48;;;;;;;115.60;60.00;;;-0.40;99.90;;;;;;5040775;28;20068;-72
2022/01/25 13:33:02;;;;;;;126.63;63.83;;;-0.30;99.90;;;;;;5051567;28;20027;-72
2022/01/25 13:35:33;;;;;;;146.73;66.40;;;-0.40;99.90;;;;;;5051512;28;20507;-73
2022/01/25 13:38:13;;;;;;;139.65;65.72;;;-0.30;99.90;;;;;;5051450;28;20021;-72
2022/01/25 13:41:07;;;;;;;138.73;68.35;;;-0.30;99.90;;;;;;5051362;28;20032;-73
2022/01/25 13:46:15;;;;;;;141.77;70.70;;;-0.30;99.90;;;;;;5045396;28;20029;-72
2022/01/25 13:48:43;;;;;;;143.25;72.75;;;-0.30;99.90;;;;;;5051603;28;20025;-73
2022/01/25 13:51:18;;;;;;;144.35;72.80;;;-0.40;99.90;;;;;;5033219;28;20033;-73
2022/01/25 13:53:56;;;;;;;142.77;73.60;;;-0.40;99.90;;;;;;5052054;28;20444;-72
2022/01/25 13:56:27;;;;;;;147.93;72.13;;;-0.50;99.90;;;;;;5023800;28;20112;-72
2022/01/25 13:58:54;;;;;;;134.13;70.43;;;-0.60;99.90;;;;;;5051465;28;20408;-73
2022/01/25 14:01:23;;;;;;;150.32;73.82;;;-0.60;99.90;;;;;;5051659;28;20075;-73
2022/01/25 14:03:56;;;;;;;141.90;71.45;;;-0.60;99.90;;;;;;5051799;28;20021;-73
2022/01/25 14:06:27;;;;;;;136.48;69.55;;;-0.50;99.90;;;;;;5050415;28;20025;-72
2022/01/25 14:09:01;;;;;;;146.85;72.68;;;-0.40;99.90;;;;;;5033335;28;20039;-73
2022/01/25 14:11:55;;;;;;;154.73;78.20;;;-0.50;99.90;;;;;;5053735;28;20124;-72
2022/01/25 14:23:19;;;;;;;146.95;74.07;;;-0.20;99.90;;;;;;5055116;28;20487;-73
2022/01/25 14:25:41;;;;;;;142.40;66.15;;;-0.40;99.90;;;;;;5052243;28;20029;-72
2022/01/25 14:28:21;;;;;;;143.63;70.18;;;-0.40;99.90;;;;;;5052341;28;20138;-72
2022/01/25 14:30:53;;;;;;;152.75;71.78;;;-0.40;99.90;;;;;;5032898;28;20499;-72
2022/01/25 14:33:27;;;;;;;143.07;71.45;;;-0.50;99.90;;;;;;5054793;28;20021;-72
2022/01/25 14:36:04;;;;;;;146.38;71.63;;;-0.50;99.90;;;;;;5035419;28;20048;-72
2022/01/25 14:38:38;;;;;;;145.63;74.70;;;-0.50;99.90;;;;;;5034728;28;20071;-72
2022/01/25 14:41:23;;;;;;;168.82;82.82;;;-0.60;99.90;;;;;;5034277;28;20024;-72
2022/01/25 14:43:55;;;;;;;172.75;87.50;;;-0.50;99.90;;;;;;5032820;28;20436;-73
2022/01/25 14:46:36;;;;;;;168.30;85.85;;;-0.50;99.90;;;;;;5040559;28;20074;-73
2022/01/25 14:49:20;;;;;;;189.05;98.72;;;-0.70;99.90;;;;;;5054582;28;20045;-73
2022/01/25 14:51:53;;;;;;;181.85;94.47;;;-0.70;99.90;;;;;;5050736;28;20020;-73
2022/01/25 14:54:23;;;;;;;195.95;101.68;;;-0.80;99.90;;;;;;5053568;28;20036;-73
2022/01/25 14:56:54;;;;;;;215.10;109.35;;;-0.80;99.90;;;;;;5052369;28;20473;-74
2022/01/25 14:59:31;;;;;;;225.80;112.30;;;-0.90;99.90;;;;;;5035129;28;20031;-71
2022/01/25 15:02:11;;;;;;;246.02;119.05;;;-0.80;99.90;;;;;;5034120;28;20018;-73
2022/01/25 15:04:41;;;;;;;207.70;103.13;;;-0.80;99.90;;;;;;5035773;28;20047;-73
2022/01/25 15:07:08;;;;;;;199.53;103.80;;;-0.90;99.90;;;;;;5052867;28;20443;-73
2022/01/25 15:09:34;;;;;;;183.00;94.38;;;-0.90;99.90;;;;;;5035416;28;20082;-73
2022/01/25 15:12:01;;;;;;;184.55;95.13;;;-0.80;99.90;;;;;;5053498;28;20024;-74
2022/01/25 15:14:37;;;;;;;168.02;86.78;;;-0.70;99.90;;;;;;5052969;28;20532;-73
2022/01/25 15:17:03;;;;;;;162.90;77.13;;;-0.90;99.90;;;;;;5053150;28;20538;-73
2022/01/25 15:19:29;;;;;;;168.00;83.17;;;-0.80;99.90;;;;;;5036571;28;20025;-74
2022/01/25 15:21:56;;;;;;;185.47;94.17;;;-0.90;99.90;;;;;;5036071;28;20029;-74
2022/01/25 15:24:26;;;;;;;193.87;96.20;;;-0.80;99.90;;;;;;5053993;28;20029;-74
2022/01/25 15:26:54;;;;;;;177.03;90.40;;;-0.80;99.90;;;;;;5054096;28;20032;-73
2022/01/25 15:29:23;;;;;;;179.77;91.80;;;-0.80;99.90;;;;;;5053826;28;20108;-73
2022/01/25 15:31:58;;;;;;;183.43;92.95;;;-0.80;99.90;;;;;;5035691;28;20157;-73
2022/01/25 15:34:25;;;;;;;183.75;86.20;;;-0.80;99.90;;;;;;5053843;28;20061;-73
2022/01/25 15:36:53;;;;;;;186.75;91.22;;;-0.80;99.90;;;;;;5036013;28;20029;-72
2022/01/25 15:39:19;;;;;;;180.33;90.37;;;-1.00;99.90;;;;;;5035436;28;20108;-73
2022/01/25 15:41:48;;;;;;;178.77;89.28;;;-0.90;99.90;;;;;;5053696;28;20017;-73
2022/01/25 15:44:18;;;;;;;174.27;84.77;;;-0.90;99.90;;;;;;5053507;28;20066;-72
2022/01/25 15:49:16;;;;;;;184.43;89.73;;;-0.90;99.90;;;;;;5055418;28;20013;-73